createdAt,value
2022-09-15T00:03:28.522Z,97.41
2022-09-15T00:08:30.661Z,97.27
2022-09-15T00:13:34.167Z,97.66
2022-09-15T00:18:37.212Z,97.09
2022-09-15T00:23:38.929Z,96.10
2022-09-15T00:28:41.466Z,95.74
2022-09-15T00:33:45.877Z,95.54
2022-09-15T00:38:47.580Z,95.59
2022-09-15T00:43:55.557Z,95.19
2022-09-15T00:48:59.969Z,95.03
2022-09-15T00:54:05.916Z,94.77
2022-09-15T00:59:11.808Z,94.94
2022-09-15T01:04:14.870Z,95.28
2022-09-15T01:09:26.392Z,95.35
2022-09-15T01:14:28.035Z,94.18
2022-09-15T01:19:38.534Z,94.78
2022-09-15T01:24:45.725Z,95.13
2022-09-15T01:30:05.747Z,95.33
2022-09-15T01:35:20.363Z,94.83
2022-09-15T01:40:27.615Z,93.37
2022-09-15T01:45:32.755Z,94.02
2022-09-15T01:50:42.927Z,95.54
2022-09-15T01:55:52.893Z,95.85
2022-09-15T02:01:17.067Z,96.09
2022-09-15T02:06:33.013Z,96.74
2022-09-15T02:11:40.129Z,97.72
2022-09-15T02:16:46.965Z,98.65
2022-09-15T02:22:02.658Z,98.34
2022-09-15T02:27:10.179Z,98.63
2022-09-15T02:32:15.272Z,99.12
2022-09-15T02:37:21.173Z,98.81
2022-09-15T02:42:28.787Z,98.29
2022-09-15T02:47:30.509Z,97.86
2022-09-15T02:52:32.159Z,97.42
2022-09-15T02:57:33.868Z,97.72
2022-09-15T03:02:36.069Z,97.75
2022-09-15T03:07:38.511Z,97.69
2022-09-15T03:12:46.032Z,97.40
2022-09-15T03:17:49.169Z,97.24
2022-09-15T03:22:50.907Z,96.78
2022-09-15T03:27:52.553Z,96.66
2022-09-15T03:32:54.290Z,96.65
2022-09-15T03:37:55.963Z,96.75
2022-09-15T03:42:57.624Z,96.34
2022-09-15T03:47:59.611Z,95.58
2022-09-15T03:53:02.048Z,95.47
2022-09-15T03:58:03.993Z,95.91
2022-09-15T04:03:06.735Z,96.22
2022-09-15T04:08:11.943Z,95.77
2022-09-15T04:13:13.992Z,95.69
2022-09-15T04:18:15.635Z,95.35
2022-09-15T04:23:17.223Z,95.21
2022-09-15T04:28:18.883Z,94.49
2022-09-15T04:33:20.563Z,94.36
2022-09-15T04:38:22.171Z,94.24
2022-09-15T04:43:23.865Z,94.04
2022-09-15T04:48:26.216Z,93.53
2022-09-15T04:53:28.130Z,93.30
2022-09-15T04:58:29.706Z,93.06
2022-09-15T05:03:31.351Z,92.21
2022-09-15T05:08:33.430Z,91.48
2022-09-15T05:13:35.582Z,91.20
2022-09-15T05:18:37.843Z,90.55
2022-09-15T05:23:39.879Z,90.32
2022-09-15T05:28:42.215Z,89.55
2022-09-15T05:33:45.095Z,89.62
2022-09-15T05:38:47.090Z,89.70
2022-09-15T05:43:50.742Z,89.17
2022-09-15T05:48:54.182Z,88.77
2022-09-15T05:53:56.118Z,89.04
2022-09-15T05:58:57.816Z,87.97
2022-09-15T06:03:59.531Z,88.15
2022-09-15T06:09:01.787Z,88.88
2022-09-15T06:14:04.102Z,88.38
2022-09-15T06:19:06.083Z,87.77
2022-09-15T06:24:07.867Z,86.62
2022-09-15T06:29:11.889Z,87.03
2022-09-15T06:34:13.609Z,87.16
2022-09-15T06:39:15.317Z,86.72
2022-09-15T06:44:17.505Z,86.14
2022-09-15T06:49:19.985Z,85.86
2022-09-15T06:54:21.993Z,85.42
2022-09-15T06:59:24.594Z,85.38
2022-09-15T07:04:26.342Z,84.67
2022-09-15T07:09:28.000Z,85.06
2022-09-15T07:14:29.945Z,84.24
2022-09-15T07:19:31.851Z,84.09
2022-09-15T07:24:33.516Z,83.79
2022-09-15T07:29:37.808Z,83.80
2022-09-15T07:34:39.613Z,82.65
2022-09-15T07:39:41.509Z,82.89
2022-09-15T07:44:43.097Z,82.82
2022-09-15T07:49:45.648Z,82.43
2022-09-15T07:54:47.410Z,82.50
2022-09-15T07:59:49.030Z,82.50
2022-09-15T08:04:50.688Z,81.94
2022-09-15T08:09:52.574Z,83.25
2022-09-15T08:14:54.302Z,83.48
2022-09-15T08:19:56.261Z,82.06
2022-09-15T08:24:58.071Z,83.25
2022-09-15T08:29:59.859Z,84.48
2022-09-15T08:35:01.842Z,85.41
2022-09-15T08:40:04.025Z,87.44
2022-09-15T08:45:14.803Z,88.83
2022-09-15T08:50:29.817Z,90.59
2022-09-15T08:55:43.656Z,90.89
2022-09-15T09:00:48.738Z,90.09
2022-09-15T09:06:03.593Z,88.25
2022-09-15T09:11:21.985Z,88.09
2022-09-15T09:16:41.881Z,87.83
2022-09-15T09:21:52.875Z,88.67
2022-09-15T09:26:55.751Z,88.71
2022-09-15T09:31:58.280Z,85.91
2022-09-15T09:37:08.947Z,85.53
2022-09-15T09:42:15.727Z,85.71
2022-09-15T09:47:17.837Z,83.45
2022-09-15T09:52:37.344Z,84.16
2022-09-15T09:57:40.853Z,82.56
2022-09-15T10:02:48.486Z,79.96
2022-09-15T10:07:50.492Z,80.68
2022-09-15T10:12:56.371Z,81.78
2022-09-15T10:17:58.386Z,82.58
2022-09-15T10:23:24.182Z,83.92
2022-09-15T10:28:27.472Z,85.65
2022-09-15T10:33:38.193Z,88.20
2022-09-15T10:38:44.559Z,89.11
2022-09-15T10:44:05.377Z,87.51
2022-09-15T10:49:17.870Z,87.91
2022-09-15T10:54:41.311Z,90.30
2022-09-15T11:00:03.021Z,93.24
2022-09-15T11:05:24.474Z,95.14
2022-09-15T11:10:41.038Z,93.87
2022-09-15T11:15:55.436Z,90.43
2022-09-15T11:21:31.110Z,90.99
2022-09-15T11:27:10.353Z,93.25
2022-09-15T11:32:19.698Z,95.33
2022-09-15T11:37:26.525Z,97.24
2022-09-15T11:42:51.300Z,98.96
2022-09-15T11:48:01.453Z,99.34
2022-09-15T11:53:27.788Z,99.43
2022-09-15T11:59:01.506Z,98.41
2022-09-15T12:04:10.350Z,98.77
2022-09-15T12:09:14.685Z,98.82
2022-09-15T12:14:29.033Z,98.81
2022-09-15T12:19:42.154Z,99.05
2022-09-15T12:25:01.309Z,99.25
2022-09-15T12:30:04.954Z,93.78
2022-09-15T12:35:18.904Z,98.82
2022-09-15T12:40:29.838Z,100.00
2022-09-15T12:45:36.199Z,100.00
2022-09-15T12:50:41.083Z,100.00
2022-09-15T12:55:55.841Z,100.00
2022-09-15T13:01:19.691Z,100.00
2022-09-15T13:06:30.631Z,100.00
2022-09-15T13:11:38.518Z,100.00
2022-09-15T13:16:40.498Z,100.00
2022-09-15T13:22:06.306Z,100.00
2022-09-15T13:27:08.892Z,100.00
2022-09-15T13:32:26.967Z,100.00
2022-09-15T13:38:15.132Z,100.00
2022-09-15T13:43:44.338Z,100.00
2022-09-15T13:49:07.477Z,100.00
2022-09-15T13:54:18.988Z,100.00
2022-09-15T13:59:28.433Z,100.00
2022-09-15T14:04:31.664Z,100.00
2022-09-15T14:09:41.418Z,100.00
2022-09-15T14:14:50.291Z,100.00
2022-09-15T14:19:54.974Z,100.00
2022-09-15T14:24:58.517Z,100.00
2022-09-15T14:30:06.833Z,100.00
2022-09-15T14:35:17.312Z,100.00
2022-09-15T14:40:30.126Z,98.25
2022-09-15T14:51:21.397Z,96.52
2022-09-15T14:56:26.280Z,97.57
2022-09-15T15:01:35.206Z,98.72
2022-09-15T15:06:45.087Z,98.56
2022-09-15T15:11:54.954Z,99.62
2022-09-15T15:17:00.070Z,98.50
2022-09-15T15:22:16.474Z,97.54
2022-09-15T15:27:25.722Z,93.39
2022-09-15T15:32:27.955Z,94.30
2022-09-15T15:37:33.431Z,94.33
2022-09-15T15:42:35.340Z,93.12
2022-09-15T15:47:37.103Z,93.08
2022-09-15T15:52:38.943Z,92.76
2022-09-15T15:57:41.016Z,91.48
2022-09-15T16:02:42.677Z,91.92
2022-09-15T16:07:47.339Z,91.13
2022-09-15T16:12:49.437Z,90.60
2022-09-15T16:17:51.140Z,90.02
2022-09-15T16:22:52.818Z,89.63
2022-09-15T16:27:54.860Z,89.34
2022-09-15T16:32:57.349Z,89.67
2022-09-15T16:37:59.106Z,90.03
2022-09-15T16:43:03.657Z,90.16
2022-09-15T16:48:05.464Z,90.23
2022-09-15T16:53:14.235Z,90.31
2022-09-15T16:58:17.331Z,90.12
2022-09-15T17:03:21.496Z,89.73
2022-09-15T17:08:28.686Z,89.18
2022-09-15T17:13:32.731Z,88.47
2022-09-15T17:18:34.443Z,88.06
2022-09-15T17:23:39.176Z,88.43
2022-09-15T17:28:42.174Z,89.02
2022-09-15T17:33:44.691Z,89.95
2022-09-15T17:38:48.689Z,90.78
2022-09-15T17:43:50.817Z,91.27
2022-09-15T17:48:52.543Z,91.82
2022-09-15T17:53:54.948Z,92.52
2022-09-15T17:58:56.636Z,93.22
2022-09-15T18:03:58.573Z,93.61
2022-09-15T18:09:00.388Z,94.00
2022-09-15T18:14:02.054Z,93.86
2022-09-15T18:19:03.692Z,94.70
2022-09-15T18:24:05.537Z,95.32
2022-09-15T18:29:07.243Z,95.27
2022-09-15T18:34:10.315Z,95.00
2022-09-15T18:39:12.004Z,94.47
2022-09-15T18:44:13.740Z,93.97
2022-09-15T18:49:15.502Z,94.19
2022-09-15T18:54:17.547Z,94.59
2022-09-15T18:59:22.415Z,95.30
2022-09-15T19:04:28.413Z,95.72
2022-09-15T19:09:32.851Z,95.19
2022-09-15T19:14:34.558Z,95.11
2022-09-15T19:19:37.255Z,94.52
2022-09-15T19:24:38.830Z,94.54
2022-09-15T19:29:40.641Z,94.63
2022-09-15T19:34:42.692Z,95.09
2022-09-15T19:39:44.591Z,95.26
2022-09-15T19:44:47.771Z,95.85
2022-09-15T19:49:51.385Z,96.66
2022-09-15T19:54:53.350Z,96.71
2022-09-15T19:59:55.154Z,96.68
2022-09-15T20:04:57.096Z,96.26
2022-09-15T20:09:58.869Z,95.52
2022-09-15T20:15:00.548Z,95.06
2022-09-15T20:20:02.708Z,94.39
2022-09-15T20:25:04.755Z,94.25
2022-09-15T20:30:07.187Z,93.97
2022-09-15T20:35:08.915Z,94.00
2022-09-15T20:40:10.643Z,93.69
2022-09-15T20:45:12.386Z,93.45
2022-09-15T20:50:14.251Z,92.64
2022-09-15T20:55:16.007Z,91.78
2022-09-15T21:00:18.682Z,92.55
2022-09-15T21:05:20.345Z,92.48
2022-09-15T21:10:24.121Z,92.85
2022-09-15T21:15:27.489Z,92.68
2022-09-15T21:20:29.618Z,91.45
2022-09-15T21:25:31.496Z,91.46
2022-09-15T21:30:33.130Z,91.01
2022-09-15T21:35:34.943Z,91.40
2022-09-15T21:40:36.955Z,91.97
2022-09-15T21:45:38.583Z,92.32
2022-09-15T21:50:53.479Z,92.50
2022-09-15T21:55:56.534Z,92.50
2022-09-15T22:00:58.202Z,92.29
2022-09-15T22:05:59.888Z,93.39
2022-09-15T22:11:01.643Z,93.69
2022-09-15T22:16:06.004Z,92.15
2022-09-15T22:21:25.937Z,92.65
2022-09-15T22:26:29.762Z,93.58
2022-09-15T22:31:31.659Z,93.07
2022-09-15T22:36:33.884Z,93.74
2022-09-15T22:41:38.067Z,93.60
2022-09-15T22:46:39.729Z,93.27
2022-09-15T22:51:41.378Z,92.95
2022-09-15T22:56:43.036Z,92.63
2022-09-15T23:01:44.988Z,92.92
2022-09-15T23:06:48.909Z,93.08
2022-09-15T23:11:50.550Z,93.79
2022-09-15T23:16:52.165Z,94.10
2022-09-15T23:21:53.842Z,93.79
2022-09-15T23:26:55.590Z,92.28
2022-09-15T23:31:57.257Z,92.29
2022-09-15T23:36:59.019Z,91.76
2022-09-15T23:42:01.299Z,91.96
2022-09-15T23:47:03.111Z,92.08
2022-09-15T23:52:04.829Z,91.50
2022-09-15T23:57:07.790Z,91.34
